createdAt,value
2022-12-20T12:47:25.013Z,115.68
2022-12-20T12:49:54.635Z,120.70
2022-12-20T12:52:40.350Z,108.10
2022-12-20T12:55:45.686Z,112.03
2022-12-20T12:58:24.549Z,109.68
2022-12-20T13:00:53.223Z,107.10
2022-12-20T13:03:40.229Z,125.25
2022-12-20T13:06:31.083Z,127.88
2022-12-20T13:09:00.815Z,127.60
2022-12-20T13:11:41.476Z,120.47
2022-12-20T13:14:26.042Z,102.70
2022-12-20T13:17:18.295Z,103.00
2022-12-20T13:19:57.697Z,118.03
2022-12-20T13:22:25.720Z,105.75
2022-12-20T13:25:02.978Z,108.68
2022-12-20T13:27:39.192Z,117.63
2022-12-20T13:30:12.328Z,88.45
2022-12-20T13:32:48.469Z,114.28
2022-12-20T13:35:28.129Z,131.23
2022-12-20T13:38:02.093Z,112.22
2022-12-20T13:40:50.051Z,111.45
2022-12-20T19:54:23.454Z,160.38
2022-12-20T19:56:50.355Z,131.45
2022-12-20T19:59:17.298Z,145.88
2022-12-20T20:01:44.822Z,136.35
2022-12-20T20:04:11.911Z,149.13
2022-12-20T20:06:38.815Z,145.80
2022-12-20T20:09:08.797Z,134.48
2022-12-20T20:11:35.612Z,133.93
2022-12-20T20:14:03.504Z,145.63
2022-12-20T20:16:30.454Z,157.55
2022-12-20T20:18:57.963Z,135.85
2022-12-20T20:21:24.988Z,127.70
2022-12-20T20:23:54.034Z,132.98
2022-12-20T20:26:26.986Z,151.98
2022-12-20T20:28:53.938Z,148.93
2022-12-20T20:31:21.757Z,132.18
2022-12-20T20:33:49.408Z,132.65
2022-12-20T20:36:21.851Z,165.07
2022-12-20T20:38:50.308Z,125.22
2022-12-20T20:41:17.609Z,141.52
2022-12-20T20:43:45.232Z,162.52
2022-12-20T20:46:14.158Z,156.38
2022-12-20T20:48:44.227Z,204.77
2022-12-20T20:51:11.862Z,168.48
2022-12-20T20:53:39.646Z,153.55
2022-12-20T20:56:07.760Z,163.05
2022-12-20T20:58:35.555Z,140.27
2022-12-20T21:01:05.103Z,133.18
2022-12-20T21:03:32.377Z,168.52
2022-12-20T21:06:34.895Z,154.15
2022-12-20T21:08:46.367Z,147.32
2022-12-20T21:11:13.553Z,142.57
2022-12-20T21:13:40.461Z,151.10
2022-12-20T21:16:09.364Z,145.73
2022-12-20T21:18:36.257Z,150.80
2022-12-20T21:21:11.662Z,153.98
2022-12-20T21:23:43.288Z,171.52
2022-12-20T21:26:10.206Z,165.07
2022-12-20T21:28:37.090Z,150.75
2022-12-20T21:31:09.636Z,157.73
2022-12-20T21:33:36.870Z,150.82
2022-12-20T21:36:10.365Z,137.77
2022-12-20T21:38:37.336Z,145.48
2022-12-20T21:41:10.433Z,148.82
2022-12-20T21:43:37.255Z,129.02
2022-12-20T21:46:04.235Z,133.70
2022-12-20T21:48:31.712Z,147.48
2022-12-20T21:51:11.706Z,125.53
2022-12-20T21:53:43.997Z,130.90
2022-12-20T21:56:11.305Z,131.82
2022-12-20T21:58:38.289Z,128.75
2022-12-20T22:01:07.922Z,125.40
2022-12-20T22:06:05.316Z,137.55
2022-12-20T22:08:33.054Z,135.10
2022-12-20T22:11:11.676Z,146.05
2022-12-20T22:13:42.064Z,146.27
2022-12-20T22:16:15.580Z,119.93
2022-12-20T22:18:43.895Z,143.07
2022-12-20T22:21:13.242Z,135.40
2022-12-20T22:23:41.212Z,123.80
2022-12-20T22:26:11.453Z,137.25
2022-12-20T22:28:39.357Z,127.05
